Observations for JERSEY AIRPORT, United Kingdom (EGJJ)

EGJJ 230520Z AUTO 17011KT 9999 BKN003/// OVC004/// 09/08 Q1020 RERA 
EGJJ 230450Z AUTO 17011KT 9999 BKN004/// OVC005/// 09/08 Q1020 RERA 
EGJJ 230420Z AUTO 18012KT 9000 RA BKN003/// BKN005/// OVC007/// 08/08 Q1020 REDZ
EGJJ 230350Z AUTO 17012KT 9999 BKN003/// OVC004/// 08/07 Q1020  
EGJJ 230320Z AUTO 17012KT 9999 SCT004/// BKN005/// BKN008/// 08/07 Q1020
EGJJ 230250Z AUTO 17011KT 9999 BKN003/// BKN005/// BKN030/// 08/07 Q1021
EGJJ 230220Z AUTO 18011KT 9999 FEW004/// 08/07 Q1021
EGJJ 230150Z AUTO 19010KT CAVOK 08/07 Q1022 
EGJJ 230120Z AUTO 20010KT CAVOK 08/07 Q1022 
EGJJ 230050Z AUTO 20009KT 9999 FEW005/// 09/07 Q1022
EGJJ 230020Z AUTO 21009KT 9999 OVC022/// 09/07 Q1022
EGJJ 222350Z AUTO 21007KT 9999 SCT025/// 08/07 Q1022
EGJJ 222320Z AUTO 22011KT 9999 BKN027/// 09/08 Q1022
EGJJ 222250Z AUTO 22012KT CAVOK 09/07 Q1022 
EGJJ 222220Z AUTO 22011KT 9999 SCT006/// BKN009/// OVC032/// 09/08 Q1022
EGJJ 222150Z AUTO 23009KT 9999 HZ FEW006/// SCT009/// OVC030/// 09/08 Q1022 
EGJJ 222120Z AUTO 24010KT 9999 SCT025/// OVC028/// 09/08 Q1022  
EGJJ 222050Z 24009KT 9999 BKN028 09/08 Q1022
EGJJ 222020Z 26009KT 9999 FEW019 BKN025 09/07 Q1022 
EGJJ 221950Z 27008KT 9999 BKN026 09/07 Q1022
EGJJ 221920Z 27009KT 9999 FEW010 BKN020 09/07 Q1022 
EGJJ 221850Z 27013KT 9999 FEW010 BKN018 09/07 Q1021 
EGJJ 221820Z 29014KT 9999 FEW010 BKN024 10/05 Q1021 
EGJJ 221750Z 28013KT 9999 FEW010 BKN024 10/06 Q1021 
EGJJ 221720Z 28012KT 9999 FEW010 BKN027 09/07 Q1021 
EGJJ 221650Z 28011KT 9999 FEW010 09/07 Q1021
EGJJ 221620Z 28013KT 9999 FEW010 10/07 Q1020
EGJJ 221550Z 28011KT 9999 FEW010 SCT035 11/10 Q1020 
EGJJ 221520Z 28012KT 9999 FEW009 11/10 Q1019
EGJJ 221450Z 28012KT 9999 FEW009 11/10 Q1019
EGJJ 221420Z 28012KT 9999 FEW014 10/09 Q1018
EGJJ 221350Z 29016KT 9999 FEW014 11/09 Q1018
EGJJ 221320Z 29016KT 9999 FEW015 SCT033 11/09 Q1018 
EGJJ 221250Z 29016KT 9999 FEW011 11/09 Q1017
EGJJ 221220Z 30014KT 9999 FEW011 11/10 Q1017
EGJJ 221150Z 30012KT 9999 FEW011 11/10 Q1016
EGJJ 221120Z 31014KT 9999 FEW011 10/10 Q1016
EGJJ 221050Z 32013KT 290V350 9999 FEW010 10/10 Q1015
EGJJ 221020Z 33014KT 9999 FEW008 SCT013 BKN030 10/10 Q1014  
EGJJ 220950Z 34013KT 310V010 9999 FEW008 SCT012 BKN032 10/10 Q1013  
EGJJ 220920Z 36017G28KT 330V030 7000 FEW002 SCT003 BKN021 09/09 Q1011   
EGJJ 220850Z 26019G33KT 9999 FEW001 BKN004 11/11 Q1009  
EGJJ 220820Z 26020KT 4000 -DZ BR BKN003 11/11 Q1009 
EGJJ 220750Z 26021G31KT 9000 SCT009 BKN011 11/11 Q1008  
EGJJ 220720Z 26023KT 8000 -DZ FEW008 BKN009 11/11 Q1008 
EGJJ 220650Z 25025KT 9000 SCT003 BKN006 11/11 Q1008 
EGJJ 220620Z 24027KT 5000 -RADZ BKN002 11/11 Q1008 RERA REDZ
EGJJ 220550Z 25025KT 4000 -DZ BR SCT001 BKN002 11/11 Q1008